Time;durP1;ratioP1;P1;durP2;ratioP2;P2;SDS_P1;SDS_P2;PMS_P1;PMS_P2;Temp;Humidity;BMP_temperature;BMP_pressure;BME280_temperature;BME280_humidity;BME280_pressure;Samples;Min_cycle;Max_cycle;Signal;HPM_P1;HPM_P2
2021/12/17 00:03:06;;;;;;;28.95;20.88;;;2.60;99.90;;;;;;5070413;28;20055;-60
2021/12/17 00:05:09;;;;;;;40.65;28.50;;;2.80;99.90;;;;;;5054351;28;20122;-60
2021/12/17 00:07:36;;;;;;;27.75;21.33;;;2.70;99.90;;;;;;5072248;28;20420;-60
2021/12/17 00:10:06;;;;;;;20.73;17.30;;;2.70;99.90;;;;;;5071664;28;20127;-60
2021/12/17 00:12:32;;;;;;;21.15;17.70;;;2.70;99.90;;;;;;5070387;28;20380;-60
2021/12/17 00:14:58;;;;;;;19.30;16.08;;;2.80;99.90;;;;;;5069666;28;20023;-60
2021/12/17 00:17:30;;;;;;;16.52;13.98;;;2.80;99.90;;;;;;5070235;28;20461;-59
2021/12/17 00:52:20;;;;;;;16.80;14.00;;;2.90;99.90;;;;;;5073009;28;20005;-60
2021/12/17 00:54:46;;;;;;;15.23;13.57;;;2.80;99.90;;;;;;5069255;28;20659;-60
2021/12/17 00:57:18;;;;;;;19.35;15.77;;;2.80;99.90;;;;;;5070638;28;20440;-60
2021/12/17 00:59:47;;;;;;;15.95;13.07;;;2.80;99.90;;;;;;5069023;28;20035;-60
2021/12/17 01:02:17;;;;;;;17.30;13.20;;;2.80;99.90;;;;;;5068059;28;20057;-61
2021/12/17 01:04:49;;;;;;;17.35;14.25;;;2.80;99.90;;;;;;5069715;28;20058;-60
2021/12/17 01:07:17;;;;;;;22.67;17.23;;;2.70;99.90;;;;;;5072190;28;20020;-60
2021/12/17 01:09:45;;;;;;;16.10;13.45;;;2.70;99.90;;;;;;5068684;28;20020;-60
2021/12/17 01:12:12;;;;;;;18.23;13.75;;;2.70;99.90;;;;;;5068826;28;20028;-61
2021/12/17 01:14:40;;;;;;;18.10;15.02;;;2.70;99.90;;;;;;5068288;28;20042;-60
2021/12/17 01:17:07;;;;;;;25.42;18.08;;;2.60;99.90;;;;;;5068111;28;20021;-60
2021/12/17 01:24:53;;;;;;;21.10;15.90;;;2.30;99.90;;;;;;5068497;28;20040;-61
2021/12/17 01:35:35;;;;;;;30.83;19.80;;;2.40;99.90;;;;;;5068565;28;20047;-60
2021/12/17 01:41:10;;;;;;;22.50;16.13;;;2.30;99.90;;;;;;5070173;28;20927;-60
2021/12/17 01:43:39;;;;;;;21.67;16.05;;;2.30;99.90;;;;;;5067896;28;20071;-61
2021/12/17 01:46:07;;;;;;;18.88;14.80;;;2.20;99.90;;;;;;5071499;28;20809;-60
2021/12/17 01:48:53;;;;;;;16.13;13.75;;;2.20;99.90;;;;;;5067886;28;20414;-60
2021/12/17 01:59:31;;;;;;;17.55;15.20;;;2.10;99.90;;;;;;5068492;28;20033;-60
2021/12/17 02:02:03;;;;;;;20.25;15.55;;;1.80;99.90;;;;;;5052432;28;20036;-60
2021/12/17 02:04:31;;;;;;;17.27;14.63;;;1.70;99.90;;;;;;5067519;28;20045;-60
2021/12/17 02:06:58;;;;;;;19.95;15.95;;;1.50;99.90;;;;;;5065878;28;20075;-60
2021/12/17 02:31:45;;;;;;;20.83;18.65;;;1.20;99.90;;;;;;5069484;28;20494;-59
2021/12/17 02:34:38;;;;;;;20.90;17.48;;;1.10;99.90;;;;;;5069019;28;20035;-60
2021/12/17 02:37:07;;;;;;;23.17;19.75;;;1.00;99.90;;;;;;5068892;28;20101;-60
2021/12/17 02:47:30;;;;;;;19.90;15.35;;;1.00;99.90;;;;;;5066759;28;20074;-59
2021/12/17 02:49:56;;;;;;;19.75;17.08;;;0.90;99.90;;;;;;5069239;28;20021;-59
2021/12/17 02:52:29;;;;;;;17.88;15.32;;;0.70;99.90;;;;;;5071136;28;20032;-59
2021/12/17 02:54:57;;;;;;;18.20;15.30;;;0.70;99.90;;;;;;5070285;28;20032;-60
2021/12/17 02:57:25;;;;;;;18.48;15.77;;;0.80;99.90;;;;;;5067116;28;20081;-61
2021/12/17 02:59:51;;;;;;;26.73;21.05;;;0.70;99.90;;;;;;5065770;28;20380;-60
2021/12/17 03:02:18;;;;;;;21.17;17.15;;;0.60;99.90;;;;;;5055505;28;20142;-60
2021/12/17 03:04:45;;;;;;;29.88;25.92;;;0.60;99.90;;;;;;5069081;28;20043;-59
2021/12/17 03:07:14;;;;;;;20.20;18.00;;;0.30;99.90;;;;;;5069362;28;20105;-59
2021/12/17 03:12:27;;;;;;;19.88;16.80;;;0.10;99.90;;;;;;5067035;28;20402;-60
2021/12/17 03:15:02;;;;;;;21.27;18.23;;;0.10;99.90;;;;;;5067428;28;20099;-60
2021/12/17 03:23:31;;;;;;;115.88;100.40;;;0.20;99.90;;;;;;5050644;28;20040;-59
2021/12/17 03:26:04;;;;;;;27.23;22.45;;;0.30;99.90;;;;;;5048941;28;20112;-59
2021/12/17 03:28:31;;;;;;;25.95;22.25;;;0.20;99.90;;;;;;5047378;28;20025;-60
2021/12/17 03:30:57;;;;;;;26.35;21.48;;;0.20;99.90;;;;;;5066060;28;20127;-59
2021/12/17 03:33:23;;;;;;;21.92;19.30;;;0.30;99.90;;;;;;5062921;28;20067;-60
2021/12/17 03:35:50;;;;;;;24.52;21.05;;;0.20;99.90;;;;;;5064290;28;20099;-59
2021/12/17 03:38:17;;;;;;;73.60;48.13;;;0.30;99.90;;;;;;5064225;28;20036;-59
2021/12/17 03:40:44;;;;;;;64.38;44.35;;;0.40;99.90;;;;;;5066529;28;20074;-60
2021/12/17 03:43:12;;;;;;;62.28;42.30;;;0.40;99.90;;;;;;5066195;28;20480;-60
2021/12/17 03:45:42;;;;;;;48.78;32.65;;;0.20;99.90;;;;;;5064856;28;20033;-60
2021/12/17 03:48:08;;;;;;;40.28;29.95;;;0.20;99.90;;;;;;5065679;28;20180;-60
2021/12/17 03:50:36;;;;;;;29.42;22.38;;;0.00;99.90;;;;;;5064524;28;20117;-59
2021/12/17 03:53:06;;;;;;;25.70;19.83;;;-0.10;99.90;;;;;;5064196;28;20164;-58
2021/12/17 03:55:33;;;;;;;23.85;19.70;;;-0.20;99.90;;;;;;5066914;28;20027;-58
2021/12/17 03:57:59;;;;;;;22.98;18.30;;;-0.40;99.90;;;;;;5069877;28;20116;-59
2021/12/17 04:00:25;;;;;;;21.45;18.80;;;-0.40;99.90;;;;;;5071585;28;20414;-59
2021/12/17 04:02:51;;;;;;;28.15;22.85;;;-0.40;99.90;;;;;;5069972;28;20036;-59
2021/12/17 04:05:17;;;;;;;34.20;26.45;;;-0.30;99.90;;;;;;5070096;28;20033;-60
2021/12/17 04:07:43;;;;;;;36.78;28.02;;;-0.10;99.90;;;;;;5072614;28;20028;-59
2021/12/17 04:10:10;;;;;;;109.30;65.10;;;0.00;99.90;;;;;;5071993;28;20032;-60
2021/12/17 04:12:54;;;;;;;68.85;42.05;;;0.10;99.90;;;;;;5069764;28;20504;-59
2021/12/17 04:15:29;;;;;;;163.57;94.15;;;0.10;99.90;;;;;;5069968;28;20055;-59
2021/12/17 04:17:57;;;;;;;73.18;45.35;;;0.00;99.90;;;;;;5069525;28;20036;-60
2021/12/17 04:20:23;;;;;;;42.15;30.00;;;-0.30;99.90;;;;;;5069666;28;20151;-59
2021/12/17 04:22:49;;;;;;;30.35;23.33;;;-0.10;99.90;;;;;;5070943;28;20524;-59
2021/12/17 04:25:14;;;;;;;42.40;30.35;;;-0.10;99.90;;;;;;5071750;28;20044;-60
2021/12/17 04:27:40;;;;;;;67.82;42.15;;;-0.10;99.90;;;;;;5070574;28;20027;-59
2021/12/17 04:30:06;;;;;;;67.65;43.80;;;-0.10;99.90;;;;;;5069723;28;20066;-60
2021/12/17 04:32:32;;;;;;;54.85;37.08;;;-0.20;99.90;;;;;;5069132;28;20072;-60
2021/12/17 04:34:57;;;;;;;52.20;32.28;;;-0.10;99.90;;;;;;5068788;28;20468;-60
2021/12/17 04:37:23;;;;;;;31.67;23.55;;;-0.20;99.90;;;;;;5069155;28;20394;-59
2021/12/17 04:39:50;;;;;;;29.60;22.00;;;-0.20;99.90;;;;;;5070453;28;20075;-59
2021/12/17 04:42:24;;;;;;;31.65;23.40;;;-0.10;99.90;;;;;;5069105;28;20074;-59
2021/12/17 04:44:56;;;;;;;28.23;20.83;;;-0.20;99.90;;;;;;5069373;28;20064;-59
2021/12/17 04:58:29;;;;;;;90.03;45.90;;;-0.50;99.90;;;;;;5066742;28;20067;-59
2021/12/17 05:00:57;;;;;;;65.10;36.78;;;-0.70;99.90;;;;;;5067941;28;20037;-59
2021/12/17 05:03:23;;;;;;;73.22;37.67;;;-0.70;99.90;;;;;;5066996;28;20024;-59
2021/12/17 05:05:49;;;;;;;47.40;28.40;;;-0.70;99.90;;;;;;5067907;28;20075;-59
2021/12/17 05:08:18;;;;;;;40.50;28.08;;;-0.80;99.90;;;;;;5066696;28;20036;-59
2021/12/17 05:11:11;;;;;;;29.00;21.80;;;-0.80;99.90;;;;;;5068304;28;20029;-60
2021/12/17 05:19:09;;;;;;;31.48;24.02;;;-1.00;99.90;;;;;;5069118;28;20071;-60
2021/12/17 05:21:35;;;;;;;55.88;34.33;;;-0.90;99.90;;;;;;5066174;28;20100;-60
2021/12/17 05:24:01;;;;;;;62.97;40.40;;;-0.60;99.90;;;;;;5065867;28;20473;-59
2021/12/17 05:26:27;;;;;;;96.20;62.90;;;-0.60;99.90;;;;;;5068729;28;20445;-60
2021/12/17 05:28:55;;;;;;;99.57;62.47;;;-0.50;99.90;;;;;;5051407;28;20066;-59
2021/12/17 05:31:21;;;;;;;94.15;61.15;;;-0.60;99.90;;;;;;5071776;28;20025;-59
2021/12/17 05:33:49;;;;;;;89.47;59.78;;;-0.60;99.90;;;;;;5060086;28;20057;-59
2021/12/17 05:36:14;;;;;;;73.22;54.63;;;-0.60;99.90;;;;;;5063549;28;20028;-59
2021/12/17 05:38:40;;;;;;;50.10;36.35;;;-0.60;99.90;;;;;;5067975;28;20021;-59
2021/12/17 05:41:06;;;;;;;41.95;30.83;;;-0.70;99.90;;;;;;5068006;28;20113;-59
2021/12/17 05:43:36;;;;;;;65.35;48.83;;;-0.80;99.90;;;;;;5069914;28;20062;-59
2021/12/17 05:46:12;;;;;;;62.75;47.95;;;-0.80;99.90;;;;;;5071693;28;20024;-59
2021/12/17 05:48:39;;;;;;;46.28;34.67;;;-0.70;99.90;;;;;;5067414;28;20031;-59
2021/12/17 05:51:09;;;;;;;37.60;29.10;;;-0.50;99.90;;;;;;5070287;28;20049;-59
2021/12/17 05:53:35;;;;;;;42.75;32.45;;;-0.60;99.90;;;;;;5067485;28;20013;-59
2021/12/17 05:56:02;;;;;;;45.67;33.50;;;-0.60;99.90;;;;;;5069713;28;20052;-59
2021/12/17 05:58:29;;;;;;;43.88;33.92;;;-0.30;99.90;;;;;;5072473;28;20051;-59
2021/12/17 06:00:56;;;;;;;52.13;38.15;;;-0.30;99.90;;;;;;5070217;28;20035;-59
2021/12/17 06:03:23;;;;;;;55.38;40.85;;;-0.60;99.90;;;;;;5067635;28;20020;-60
2021/12/17 06:05:49;;;;;;;53.88;38.92;;;-0.90;99.90;;;;;;5067820;28;20048;-59
2021/12/17 06:08:15;;;;;;;54.92;38.03;;;-1.00;99.90;;;;;;5067939;28;20028;-59
2021/12/17 06:10:41;;;;;;;44.78;33.10;;;-1.00;99.90;;;;;;5070297;28;20470;-59
2021/12/17 06:13:06;;;;;;;50.83;35.55;;;-1.10;99.90;;;;;;5069600;28;20103;-59
2021/12/17 06:15:32;;;;;;;48.55;36.90;;;-1.00;99.90;;;;;;5069567;28;20115;-59
2021/12/17 06:17:58;;;;;;;50.10;35.38;;;-0.80;99.90;;;;;;5067650;28;20021;-59
2021/12/17 06:20:24;;;;;;;44.05;32.92;;;-0.80;99.90;;;;;;5067755;28;20028;-59
2021/12/17 06:22:51;;;;;;;173.02;93.20;;;-0.90;99.90;;;;;;5068363;28;20071;-59
2021/12/17 06:25:17;;;;;;;107.03;62.50;;;-0.80;99.90;;;;;;5071510;28;20048;-59
2021/12/17 06:27:43;;;;;;;76.07;47.55;;;-0.90;99.90;;;;;;5067574;28;20033;-59
2021/12/17 06:30:13;;;;;;;63.78;45.65;;;-1.10;99.90;;;;;;5067688;28;20029;-60
2021/12/17 06:32:39;;;;;;;61.50;40.58;;;-1.30;99.90;;;;;;5069195;28;20090;-58
2021/12/17 06:35:06;;;;;;;57.63;39.42;;;-1.20;99.90;;;;;;5066879;28;20029;-59
2021/12/17 06:37:33;;;;;;;50.58;35.50;;;-1.20;99.90;;;;;;5070497;28;20028;-58
2021/12/17 06:39:59;;;;;;;45.50;33.50;;;-1.10;99.90;;;;;;5070017;28;20036;-59
2021/12/17 06:42:26;;;;;;;43.75;31.25;;;-1.30;99.90;;;;;;5067436;28;20021;-59
2021/12/17 06:44:56;;;;;;;42.70;30.98;;;-1.30;99.90;;;;;;5067454;28;20123;-59
2021/12/17 07:00:42;;;;;;;39.08;27.02;;;-1.30;99.90;;;;;;5067911;28;20371;-59
2021/12/17 07:11:00;;;;;;;44.60;32.60;;;-1.60;99.90;;;;;;5052094;28;20621;-59
2021/12/17 07:39:35;;;;;;;64.13;38.83;;;-1.60;99.90;;;;;;5030296;28;20034;-58
2021/12/17 07:42:02;;;;;;;62.30;40.45;;;-1.50;99.90;;;;;;5026310;28;20063;-58
2021/12/17 07:44:28;;;;;;;72.30;43.25;;;-1.40;99.90;;;;;;5031024;28;20052;-59
2021/12/17 07:46:54;;;;;;;46.67;31.95;;;-1.50;99.90;;;;;;5031270;28;20028;-60
2021/12/17 07:49:20;;;;;;;45.75;31.00;;;-1.40;99.90;;;;;;5031892;28;20515;-59
2021/12/17 07:51:45;;;;;;;50.47;31.70;;;-1.30;99.90;;;;;;5030813;28;20104;-58
2021/12/17 07:54:11;;;;;;;73.68;49.75;;;-1.10;99.90;;;;;;5031174;28;20476;-58
2021/12/17 07:56:39;;;;;;;78.85;56.15;;;-0.90;99.90;;;;;;5030317;28;20061;-57
2021/12/17 07:59:10;;;;;;;97.07;60.35;;;-0.90;99.90;;;;;;5030292;28;20160;-60
2021/12/17 08:01:37;;;;;;;88.95;67.80;;;-1.00;99.90;;;;;;5030974;28;20189;-59
2021/12/17 08:04:04;;;;;;;120.90;80.07;;;-1.10;99.90;;;;;;5056848;28;20044;-59
2021/12/17 08:06:31;;;;;;;96.43;65.90;;;-1.20;99.90;;;;;;5070789;28;20024;-59
2021/12/17 08:08:56;;;;;;;102.80;65.13;;;-1.00;99.90;;;;;;5072568;28;20037;-59
2021/12/17 08:11:22;;;;;;;93.38;51.63;;;-1.10;99.90;;;;;;5070060;28;20111;-59
2021/12/17 08:13:50;;;;;;;93.30;51.60;;;-0.80;99.90;;;;;;5070012;28;20483;-59
2021/12/17 08:23:09;;;;;;;111.15;62.35;;;1.00;99.90;;;;;;5071387;28;20020;-60
2021/12/17 08:32:39;;;;;;;88.03;56.22;;;4.60;99.90;;;;;;5046052;28;20033;-60
2021/12/17 08:35:07;;;;;;;224.82;159.80;;;5.20;99.90;;;;;;5048070;28;20037;-60
2021/12/17 08:37:33;;;;;;;139.38;92.55;;;5.50;99.90;;;;;;5047803;28;20056;-60
2021/12/17 08:39:59;;;;;;;117.10;70.82;;;5.90;99.90;;;;;;5048030;28;20451;-60
2021/12/17 08:42:25;;;;;;;113.07;60.00;;;6.10;99.90;;;;;;5048534;28;20047;-60
2021/12/17 08:44:50;;;;;;;70.40;46.72;;;5.90;99.90;;;;;;5046489;28;20044;-59
2021/12/17 08:47:16;;;;;;;34.53;23.90;;;5.60;99.90;;;;;;5046690;28;20467;-60
2021/12/17 08:49:43;;;;;;;84.05;55.78;;;6.30;99.90;;;;;;5049724;28;20100;-59
2021/12/17 08:52:10;;;;;;;34.80;26.20;;;7.00;99.90;;;;;;5049478;28;20029;-60
2021/12/17 08:54:37;;;;;;;37.00;29.27;;;7.90;99.90;;;;;;5047233;28;20450;-61
2021/12/17 08:57:03;;;;;;;20.52;15.32;;;7.80;99.90;;;;;;5046977;28;20045;-60
2021/12/17 08:59:29;;;;;;;20.15;16.38;;;7.60;99.90;;;;;;5047496;28;20032;-59
2021/12/17 09:01:56;;;;;;;15.95;14.02;;;7.20;99.90;;;;;;5048684;28;20029;-59
2021/12/17 09:04:22;;;;;;;12.55;9.77;;;7.20;99.90;;;;;;5048595;28;20423;-60
2021/12/17 09:06:49;;;;;;;10.80;8.68;;;8.40;99.90;;;;;;5053532;28;20040;-56
2021/12/17 09:09:19;;;;;;;11.35;8.50;;;8.10;99.90;;;;;;5068224;28;20404;-57
2021/12/17 09:11:45;;;;;;;8.57;6.95;;;8.90;99.90;;;;;;5066869;28;20520;-57
2021/12/17 09:14:11;;;;;;;10.60;7.65;;;8.70;99.90;;;;;;5069217;28;20029;-58
2021/12/17 09:16:37;;;;;;;9.65;6.90;;;8.60;99.90;;;;;;5069335;28;20442;-57
2021/12/17 09:19:04;;;;;;;8.85;6.93;;;8.40;99.90;;;;;;5069528;28;20075;-57
2021/12/17 09:21:30;;;;;;;9.50;7.15;;;9.30;99.90;;;;;;5065129;28;20364;-56
2021/12/17 09:23:56;;;;;;;9.65;6.63;;;8.70;99.90;;;;;;5065458;28;20025;-56
2021/12/17 09:26:22;;;;;;;10.30;6.30;;;10.50;99.90;;;;;;5067042;28;20048;-56
2021/12/17 09:28:49;;;;;;;7.88;6.38;;;10.20;99.90;;;;;;5068192;28;20020;-56
2021/12/17 09:31:15;;;;;;;8.02;6.65;;;10.30;99.90;;;;;;5068446;28;20113;-58
2021/12/17 09:33:43;;;;;;;8.80;6.63;;;10.70;99.90;;;;;;5068724;28;20492;-60
2021/12/17 09:36:09;;;;;;;7.90;6.95;;;11.20;99.90;;;;;;5067642;28;20446;-58
2021/12/17 09:38:35;;;;;;;9.85;7.32;;;10.50;99.90;;;;;;5068922;28;20073;-58
2021/12/17 09:41:02;;;;;;;8.18;7.38;;;9.60;99.90;;;;;;5067240;28;20021;-58
2021/12/17 09:43:32;;;;;;;8.13;6.90;;;9.70;99.90;;;;;;5072554;28;20028;-59
2021/12/17 09:45:59;;;;;;;8.57;7.10;;;10.60;99.90;;;;;;5068645;28;20036;-59
2021/12/17 09:48:25;;;;;;;10.43;7.53;;;12.00;99.90;;;;;;5066481;28;20020;-59
2021/12/17 09:50:52;;;;;;;8.55;7.70;;;12.00;99.90;;;;;;5072360;28;20020;-58
2021/12/17 09:53:19;;;;;;;8.82;7.57;;;11.60;99.90;;;;;;5067574;28;20038;-58
2021/12/17 09:55:45;;;;;;;9.40;8.13;;;10.50;99.90;;;;;;5067821;28;20032;-58
2021/12/17 09:58:11;;;;;;;9.07;7.88;;;11.40;99.90;;;;;;5067539;28;21139;-59
2021/12/17 10:00:37;;;;;;;8.48;7.57;;;11.60;99.90;;;;;;5063838;28;20027;-59
2021/12/17 10:03:06;;;;;;;8.20;7.35;;;11.80;99.90;;;;;;5065766;28;20025;-58
2021/12/17 10:05:34;;;;;;;8.60;7.70;;;12.10;99.90;;;;;;5068362;28;20032;-58
2021/12/17 10:08:03;;;;;;;10.50;7.05;;;11.80;99.90;;;;;;5071320;28;20052;-57
2021/12/17 10:10:38;;;;;;;9.38;8.00;;;12.10;99.90;;;;;;5074752;28;20050;-57
2021/12/17 10:13:11;;;;;;;9.63;7.95;;;12.50;99.90;;;;;;5073563;28;20061;-58
2021/12/17 10:15:39;;;;;;;8.93;8.00;;;12.70;99.90;;;;;;5073715;28;20390;-59
2021/12/17 10:18:05;;;;;;;12.25;10.85;;;12.50;99.90;;;;;;5075857;28;20104;-58
2021/12/17 10:20:40;;;;;;;13.93;11.93;;;11.60;99.90;;;;;;5077124;28;20094;-58
2021/12/17 10:23:08;;;;;;;14.65;12.57;;;11.50;99.90;;;;;;5074369;28;20021;-58
2021/12/17 10:25:37;;;;;;;12.10;9.85;;;11.40;99.90;;;;;;5078680;28;20390;-58
2021/12/17 10:28:05;;;;;;;11.68;10.02;;;12.20;99.90;;;;;;5072017;28;20513;-58
2021/12/17 10:30:33;;;;;;;9.73;8.68;;;12.50;99.90;;;;;;5062961;28;20035;-59
2021/12/17 10:33:02;;;;;;;11.43;9.07;;;13.20;99.90;;;;;;5068720;28;20052;-59
2021/12/17 10:35:33;;;;;;;11.15;10.05;;;12.40;99.90;;;;;;5063180;28;20060;-58
2021/12/17 10:38:06;;;;;;;10.07;9.07;;;12.40;99.90;;;;;;5066855;28;20108;-58
2021/12/17 10:40:54;;;;;;;13.63;9.98;;;11.60;99.90;;;;;;5066867;28;20052;-58
2021/12/17 10:43:34;;;;;;;13.52;11.15;;;11.70;99.90;;;;;;5065811;28;20024;-58
2021/12/17 10:46:20;;;;;;;11.57;9.80;;;12.50;99.90;;;;;;5068855;28;20482;-57
2021/12/17 10:54:09;;;;;;;11.80;9.60;;;11.60;99.90;;;;;;5067174;28;20008;-58
2021/12/17 10:56:37;;;;;;;11.85;9.82;;;12.50;99.90;;;;;;5066539;28;20037;-58
2021/12/17 10:59:09;;;;;;;10.75;9.23;;;12.40;99.90;;;;;;5066747;28;20025;-57
2021/12/17 11:01:41;;;;;;;11.25;10.07;;;12.90;99.90;;;;;;5068394;28;20025;-57
2021/12/17 11:04:31;;;;;;;10.32;9.32;;;12.10;99.90;;;;;;5066339;28;20109;-59
2021/12/17 11:07:09;;;;;;;11.18;10.00;;;11.00;99.90;;;;;;5063875;28;20414;-58
2021/12/17 11:09:38;;;;;;;15.40;12.80;;;11.00;99.90;;;;;;5069334;28;20085;-58
2021/12/17 11:12:37;;;;;;;10.57;9.48;;;11.20;99.90;;;;;;5072279;28;20020;-58
2021/12/17 11:15:24;;;;;;;11.70;9.25;;;11.80;99.90;;;;;;5070575;28;20025;-58
2021/12/17 11:18:02;;;;;;;11.02;9.50;;;11.20;99.90;;;;;;5071341;28;20036;-58
2021/12/17 11:20:32;;;;;;;16.63;13.65;;;11.50;99.90;;;;;;5071600;28;20025;-58
2021/12/17 11:23:04;;;;;;;15.35;11.85;;;11.60;99.90;;;;;;5055549;28;20028;-58
2021/12/17 11:25:30;;;;;;;12.77;11.25;;;12.30;99.90;;;;;;5069928;28;20032;-58
2021/12/17 11:27:57;;;;;;;25.90;20.52;;;10.70;99.90;;;;;;5071335;28;20027;-58
2021/12/17 11:30:25;;;;;;;10.32;9.13;;;10.70;99.90;;;;;;5070781;28;20544;-57
2021/12/17 11:32:53;;;;;;;10.15;8.93;;;11.90;99.90;;;;;;5070567;28;20045;-58
2021/12/17 11:35:21;;;;;;;13.48;10.48;;;12.10;99.90;;;;;;5070886;28;20067;-58
2021/12/17 11:37:50;;;;;;;9.15;8.02;;;11.60;99.90;;;;;;5071795;28;20052;-58
2021/12/17 11:40:40;;;;;;;8.60;7.28;;;11.40;99.90;;;;;;5072220;28;20033;-59
2021/12/17 11:43:28;;;;;;;10.50;9.48;;;11.80;99.90;;;;;;5065167;28;20091;-58
2021/12/17 11:46:04;;;;;;;10.07;8.48;;;10.30;99.90;;;;;;5071690;28;20028;-59
2021/12/17 11:48:32;;;;;;;7.97;7.18;;;10.80;99.90;;;;;;5070605;28;20029;-59
2021/12/17 11:51:13;;;;;;;8.55;7.65;;;11.10;99.90;;;;;;5070082;28;20021;-58
2021/12/17 11:54:26;;;;;;;9.35;7.93;;;10.80;99.90;;;;;;5070813;28;20020;-59
2021/12/17 11:56:54;;;;;;;8.85;7.03;;;10.90;99.90;;;;;;5069188;28;20085;-57
2021/12/17 11:59:30;;;;;;;7.90;6.85;;;11.50;99.90;;;;;;5069857;28;20033;-59
2021/12/17 12:02:17;;;;;;;9.77;8.73;;;11.80;99.90;;;;;;5067012;28;20037;-59
2021/12/17 12:04:55;;;;;;;9.40;8.40;;;11.80;99.90;;;;;;5069809;28;20120;-59
2021/12/17 12:07:33;;;;;;;12.32;11.02;;;10.50;99.90;;;;;;5071791;28;20509;-59
2021/12/17 12:10:11;;;;;;;10.85;7.93;;;10.50;99.90;;;;;;5068517;28;20548;-59
2021/12/17 12:12:46;;;;;;;12.90;9.98;;;11.30;99.90;;;;;;5065595;28;20403;-58
2021/12/17 12:15:22;;;;;;;9.52;8.35;;;11.30;99.90;;;;;;5068995;28;20024;-59
2021/12/17 12:17:57;;;;;;;9.52;7.72;;;11.90;99.90;;;;;;5068352;28;20032;-59
2021/12/17 12:20:44;;;;;;;10.32;9.00;;;12.00;99.90;;;;;;5066316;28;20096;-59
2021/12/17 12:23:31;;;;;;;9.85;8.82;;;10.70;99.90;;;;;;5064144;28;20029;-59
2021/12/17 12:26:11;;;;;;;8.88;7.70;;;10.00;99.90;;;;;;5068836;28;20043;-59
2021/12/17 12:28:48;;;;;;;11.27;8.95;;;10.40;99.90;;;;;;5070198;28;20158;-58
2021/12/17 12:31:17;;;;;;;8.43;7.57;;;10.40;99.90;;;;;;5068491;28;20013;-58
2021/12/17 12:36:49;;;;;;;9.10;7.85;;;10.90;99.90;;;;;;5066812;28;20044;-60
2021/12/17 12:39:49;;;;;;;9.45;8.45;;;10.40;99.90;;;;;;5065475;28;20070;-60
2021/12/17 12:42:24;;;;;;;9.02;7.10;;;10.80;99.90;;;;;;5069515;28;20053;-60
2021/12/17 12:44:49;;;;;;;11.30;7.50;;;10.60;99.90;;;;;;5072701;28;20461;-60
2021/12/17 12:47:22;;;;;;;9.30;7.70;;;9.90;99.90;;;;;;5067639;28;20028;-60
2021/12/17 12:50:06;;;;;;;8.45;7.55;;;10.50;99.90;;;;;;5068553;28;20034;-58
2021/12/17 12:52:38;;;;;;;10.10;8.05;;;10.30;99.90;;;;;;5067588;28;20082;-59
2021/12/17 12:55:15;;;;;;;9.48;8.02;;;10.30;99.90;;;;;;5067396;28;20033;-59
2021/12/17 12:57:45;;;;;;;10.38;9.25;;;10.50;99.90;;;;;;5069819;28;20517;-59
2021/12/17 13:00:13;;;;;;;8.65;7.82;;;9.90;99.90;;;;;;5070931;28;20039;-59
2021/12/17 13:02:39;;;;;;;13.55;11.45;;;9.80;99.90;;;;;;5072748;28;20024;-60
2021/12/17 13:05:07;;;;;;;14.90;11.32;;;9.80;99.90;;;;;;5068561;28;20548;-59
2021/12/17 13:07:40;;;;;;;9.43;8.43;;;9.40;99.90;;;;;;5068776;28;20029;-60
2021/12/17 13:10:14;;;;;;;16.73;12.13;;;10.00;99.90;;;;;;5069345;28;20051;-59
2021/12/17 13:12:41;;;;;;;9.25;7.93;;;10.00;99.90;;;;;;5068879;28;20044;-59
2021/12/17 13:15:31;;;;;;;9.80;8.07;;;10.10;99.90;;;;;;5071683;28;20028;-60
2021/12/17 13:23:48;;;;;;;12.15;9.05;;;9.50;99.90;;;;;;5071125;28;20497;-60
2021/12/17 13:26:14;;;;;;;15.07;11.67;;;9.80;99.90;;;;;;5068553;28;20043;-60
2021/12/17 13:28:50;;;;;;;11.82;7.95;;;9.60;99.90;;;;;;5068566;28;20433;-59
2021/12/17 13:31:53;;;;;;;10.20;8.50;;;9.50;99.90;;;;;;5068596;28;20376;-59
2021/12/17 13:34:34;;;;;;;9.98;8.98;;;9.40;99.90;;;;;;5050785;28;20036;-60
2021/12/17 13:37:26;;;;;;;12.77;10.60;;;9.10;99.90;;;;;;5048900;28;20083;-59
2021/12/17 13:40:12;;;;;;;10.77;9.63;;;9.00;99.90;;;;;;5049016;28;20086;-59
2021/12/17 13:42:43;;;;;;;13.10;11.70;;;9.10;99.90;;;;;;5034336;28;20133;-59
2021/12/17 13:45:13;;;;;;;10.90;9.77;;;8.70;99.90;;;;;;5049192;28;20577;-59
2021/12/17 13:47:47;;;;;;;12.30;10.18;;;8.80;99.90;;;;;;5050450;28;20029;-59
2021/12/17 13:50:21;;;;;;;;;;;8.70;99.90;;;;;;5049108;28;20045;-59
2021/12/17 13:52:50;;;;;;;12.02;10.73;;;8.40;99.90;;;;;;5048850;28;20370;-60
2021/12/17 13:55:27;;;;;;;12.00;10.80;;;8.50;99.90;;;;;;5048767;28;20033;-60
2021/12/17 13:57:53;;;;;;;12.32;11.05;;;8.50;99.90;;;;;;5048623;28;20041;-59
2021/12/17 14:00:25;;;;;;;12.75;11.45;;;8.60;99.90;;;;;;5048707;28;20017;-59
2021/12/17 14:02:54;;;;;;;12.73;11.45;;;8.80;99.90;;;;;;5049826;28;20521;-59
2021/12/17 14:05:28;;;;;;;12.18;10.57;;;8.50;99.90;;;;;;5048289;28;20056;-60
2021/12/17 14:07:59;;;;;;;13.02;11.55;;;8.10;99.90;;;;;;5048809;28;20025;-59
2021/12/17 14:10:32;;;;;;;14.38;12.68;;;8.20;99.90;;;;;;5062167;28;20121;-60
2021/12/17 14:12:58;;;;;;;17.02;14.48;;;8.40;99.90;;;;;;5067979;28;20059;-60
2021/12/17 14:15:27;;;;;;;13.38;12.02;;;8.50;99.90;;;;;;5068895;28;20025;-60
2021/12/17 14:18:03;;;;;;;14.00;12.57;;;8.20;99.90;;;;;;5071816;28;20109;-60
2021/12/17 14:20:40;;;;;;;14.35;12.85;;;8.00;99.90;;;;;;5068571;28;20449;-61
2021/12/17 14:23:08;;;;;;;15.55;13.93;;;7.80;99.90;;;;;;5068096;28;20446;-60
2021/12/17 14:25:44;;;;;;;16.10;13.88;;;8.00;99.90;;;;;;5067669;28;20484;-59
2021/12/17 14:28:17;;;;;;;16.10;14.20;;;7.80;99.90;;;;;;5067777;28;20111;-60
2021/12/17 14:30:56;;;;;;;18.13;14.30;;;7.60;99.90;;;;;;5068087;28;20048;-60
2021/12/17 14:33:25;;;;;;;15.35;13.70;;;7.60;99.90;;;;;;5069117;28;20119;-60
2021/12/17 14:36:04;;;;;;;20.25;16.00;;;7.60;99.90;;;;;;5070482;28;20565;-59
2021/12/17 14:39:02;;;;;;;16.80;14.77;;;7.60;99.90;;;;;;5068607;28;20111;-60
2021/12/17 14:41:35;;;;;;;17.65;15.40;;;7.50;99.90;;;;;;5066941;28;20032;-60
2021/12/17 14:44:12;;;;;;;;;;;7.10;99.90;;;;;;5067557;28;20041;-60
2021/12/17 15:02:56;;;;;;;23.25;19.88;;;6.90;99.90;;;;;;5070373;28;20513;-60
2021/12/17 15:05:25;;;;;;;25.40;21.60;;;6.80;99.90;;;;;;5067536;28;20498;-60
2021/12/17 15:07:52;;;;;;;32.63;26.83;;;6.90;99.90;;;;;;5068332;28;20525;-59
2021/12/17 15:10:22;;;;;;;31.15;25.23;;;6.80;99.90;;;;;;5067200;28;20475;-60
2021/12/17 15:12:50;;;;;;;29.77;24.65;;;6.80;99.90;;;;;;5068892;28;20036;-60
2021/12/17 15:15:20;;;;;;;33.40;27.80;;;6.70;99.90;;;;;;5069768;28;20035;-60
2021/12/17 15:17:49;;;;;;;32.08;26.27;;;6.70;99.90;;;;;;5069489;28;20062;-60
2021/12/17 15:20:17;;;;;;;27.23;22.75;;;6.80;99.90;;;;;;5067163;28;20024;-60
2021/12/17 15:22:43;;;;;;;24.08;20.48;;;6.70;99.90;;;;;;5067114;28;20498;-60
2021/12/17 15:25:11;;;;;;;28.83;22.67;;;6.70;99.90;;;;;;5066959;28;20048;-59
2021/12/17 15:27:37;;;;;;;26.80;21.85;;;6.70;99.90;;;;;;5066926;28;20017;-60
2021/12/17 15:30:07;;;;;;;27.33;22.45;;;6.70;99.90;;;;;;5070454;28;20050;-60
2021/12/17 15:32:32;;;;;;;28.92;22.27;;;6.80;99.90;;;;;;5069713;28;20417;-60
2021/12/17 15:34:58;;;;;;;35.15;26.27;;;6.60;99.90;;;;;;5067087;28;20036;-60
2021/12/17 15:37:24;;;;;;;34.67;27.48;;;6.50;99.90;;;;;;5066641;28;20028;-59
2021/12/17 15:39:50;;;;;;;35.13;27.85;;;6.40;99.90;;;;;;5066879;28;20055;-59
2021/12/17 15:42:16;;;;;;;36.63;27.52;;;6.40;99.90;;;;;;5069086;28;20021;-60
2021/12/17 15:44:42;;;;;;;31.90;25.65;;;6.50;99.90;;;;;;5069201;28;20036;-60
2021/12/17 15:47:08;;;;;;;33.50;26.42;;;6.40;99.90;;;;;;5066624;28;20066;-59
2021/12/17 15:49:35;;;;;;;34.78;26.08;;;6.40;99.90;;;;;;5066970;28;20457;-60
2021/12/17 15:52:04;;;;;;;39.28;26.95;;;6.30;99.90;;;;;;5066960;28;20104;-59
2021/12/17 15:54:30;;;;;;;35.70;25.65;;;6.30;99.90;;;;;;5053569;28;20024;-60
2021/12/17 15:56:55;;;;;;;42.60;29.67;;;6.30;99.90;;;;;;5073902;28;20047;-60
2021/12/17 15:59:21;;;;;;;53.30;33.90;;;6.30;99.90;;;;;;5070784;28;20150;-60
2021/12/17 16:01:47;;;;;;;69.10;48.08;;;6.30;99.90;;;;;;5070038;28;20456;-61
2021/12/17 16:04:13;;;;;;;62.17;43.60;;;6.20;99.90;;;;;;5070417;28;20040;-60
2021/12/17 16:06:39;;;;;;;87.75;61.00;;;6.20;99.90;;;;;;5070527;28;20107;-59
2021/12/17 16:09:12;;;;;;;43.40;33.60;;;6.20;99.90;;;;;;5073304;28;20039;-60
2021/12/17 16:11:54;;;;;;;71.50;52.67;;;6.10;99.90;;;;;;5073813;28;20475;-60
2021/12/17 16:22:50;;;;;;;64.13;49.03;;;5.90;99.90;;;;;;5068123;28;20056;-60
2021/12/17 16:25:15;;;;;;;68.80;52.92;;;5.80;99.90;;;;;;5067993;28;20032;-60